AirNav  
 
 445 users online  

44L Wilshire Area Heliport
Los Angeles, California, USA

GOING TO LOS ANGELES?


FAA INFORMATION EFFECTIVE 29 MARCH 2018

Location

FAA Identifier: 44L
Lat/Long: 34-02-50.1000N / 118-20-34.4000W
34-02.835000N / 118-20.573333W
34.0472500 / -118.3428889
(estimated)
Elevation: 150 ft. / 46 m (estimated)
Variation: 14E (1985)
From city: 6 miles E of LOS ANGELES, CA
Time zone: UTC -7 (UTC -8 during Standard Time)
Zip code: 90019

Heliport Operations

Heliport use: Private use. Permission required prior to landing
Activation date: 06/1974
Control tower: no
ARTCC: LOS ANGELES CENTER
FSS: HAWTHORNE FLIGHT SERVICE STATION
Attendance: CONTINUOUS
Wind indicator: yes
Segmented circle: no
Lights: FOR PERIMETER LGTS; PHONE 213-485-2600.

Heliport Communications

UNICOM: 123.05
WX ASOS at SMO (6 nm W): PHONE 310-392-6453
WX ASOS at LAX (7 nm SW): PHONE 310-568-1486
WX ASOS at HHR (7 nm S): PHONE 310-973-8930
WX ASOS at BUR (9 nm N): PHONE 818-841-1384
WX AWOS-3PT at CPM (11 nm SE): 127.150 (310-631-4958)
WX ASOS at VNY (12 nm NW): PHONE 818-904-9213
WX AWOS-3PT at WHP (13 nm N): 132.1 (818-899-9820)
WX AWOS-3PT at EMT (15 nm E): 118.75 ((626) 444-1107)
WX ASOS at LGB (17 nm SE): PHONE 562-424-0572

Nearby radio navigation aids

VOR radial/distance  VOR name  Freq  Var
SMOr054/6.1SANTA MONICA VOR/DME110.8015E
LAXr018/8.2LOS ANGELES VORTAC113.6015E
VNYr130/12.9VAN NUYS VOR/DME113.1015E
SLIr303/21.4SEAL BEACH VORTAC115.7015E
POMr251/27.7POMONA VORTAC110.4015E
FIMr110/32.5FILLMORE VORTAC112.5015E
VTUr082/35.3VENTURA VOR/DME108.2015E
PMDr187/37.7PALMDALE VORTAC114.5015E
ELBr292/37.8EL TORO VOR/DME117.2014E
CMAr090/38.6CAMARILLO VOR/DME115.8015E
LHSr148/39.9LAKE HUGHES VORTAC108.4015E

 
NDB name  Hdg/Dist  Freq  Var  ID
EL MONTE246/15.735915EEMT . -- -

Heliport Services

Airframe service: NONE
Powerplant service: NONE

Runway Information

Helipad H1

Dimensions: 50 x 40 ft. / 15 x 12 m
Surface: concrete
Runway edge lights: PERIMETER LGTS.
Latitude: 34-02.835000N
Longitude: 118-20.573333W
Elevation: 150.0 ft.
Traffic pattern: leftleft

Heliport Ownership and Management from official FAA records

Ownership: Publicly-owned
Owner: CITY OF LOS ANGELES
555 RAMIREZ ST.SPACE 475
LOS ANGELES, CA 90012
Manager: C.O.-AIR SUPPORT DIV-LAPD
150 N. LOS ANGELES STREET
LOS ANGELES, CA 90012
Phone 213-485-2600

Additional Remarks

A52-H1 UNLGTD/UNMKD PLINES SOUTH & TREES WEST.
RSTRD LNDG POLICE BUS ONLY. PHONE AIR SUPPORT DIV WATCH COMMANDER 213-485-2600 FOR APVL PRIOR TO FLIGHT; THEN CTC KMB7 ON 123.050 PRIOR TO LNDG AT HELI.

Instrument Procedures

There are no published instrument procedures at 44L.

Some nearby airports with instrument procedures:

KSMO - Santa Monica Municipal Airport (6 nm W)
KLAX - Los Angeles International Airport (7 nm SW)
KHHR - Jack Northrop Field/Hawthorne Municipal Airport (7 nm S)
KBUR - Bob Hope Airport (9 nm N)
KVNY - Van Nuys Airport (12 nm NW)
KWHP - Whiteman Airport (13 nm N)
KTOA - Zamperini Field Airport (15 nm S)
KEMT - San Gabriel Valley Airport (15 nm E)
KLGB - Long Beach Airport (Daugherty Field) (17 nm SE)
 
Loc | Ops | Rwys | IFR | FBO | Links
Com | Nav | Svcs | Stats | Notes

AirNav Hotels Sweepstakes
 
Area around 44L (Wilshire Area Heliport)
 
Road maps at: MapQuest Bing Google
 
Aerial photo
No photo
 
Sectional chart

 
Airport distance calculator
Flying to Wilshire Area Heliport? Find the distance to fly.

From to 44L

Sunrise and sunset
Times for 19-Apr-2018
 Local
(UTC-7)
 Zulu
(UTC)
Morning civil twilight05:5212:52
Sunrise06:1813:18
Sunset19:2702:27
Evening civil twilight19:5302:53

Current date and time
Zulu (UTC)  20-Apr-2018 06:01:02
Local (UTC-7)  19-Apr-2018 23:01:02
 
METAR
KCQT 
5nm E 
200547Z AUTO VRB03KT 10SM CLR 14/09 A3003 RMK AO2 SLP168 T01390094 10167 20133 51010
KSMO 
6nm W 
200551Z AUTO 09005KT 10SM CLR 12/09 A3003 RMK AO2 SLP169 T01170089 10144 20117 51008
KLAX 
7nm S 
200553Z VRB03KT 10SM CLR 13/09 A3003 RMK AO2 SLP168 T01330094 10156 20133 51006
KHHR 
8nm S 
200553Z AUTO 00000KT 10SM CLR 13/10 A3003 RMK AO2 SLP170 T01330100 10167 20133 50007
KBUR 
9nm N 
200553Z 10004KT 10SM CLR 13/09 A3003 RMK AO2 SLP161 T01280089 10172 20128 51012
KVNY 
12nm NW 
200551Z AUTO 33010G15KT 10SM CLR 13/06 A3001 RMK AO2 SLP161 T01330061 10178 20128 50008
KWHP 
13nm N 
200255Z 14005KT 10SM CLR 14/05 A3003
KTOA 
16nm S 
200247Z 24011KT 10SM SKC 14/08 A3000 RMK LAST WX
KEMT 
16nm E 
200253Z 00000KT 10SM CLR 14/07 A3002
KLGB 
17nm SE 
200553Z 08005KT 10SM CLR 14/09 A3004 RMK AO2 SLP172 T01390094 10183 20139 51012
TAF
KSMO 
6nm W 
200520Z 2006/2106 VRB03KT P6SM SKC FM201900 23008KT P6SM SKC FM210300 VRB03KT P6SM SKC
KLAX 
7nm S 
200520Z 2006/2112 26008KT P6SM SKC FM200900 VRB03KT P6SM SKC FM201200 VRB03KT 6SM BR BKN012 FM201600 26006KT P6SM FEW012 FM201900 26012KT P6SM SKC FM210400 26006KT P6SM SKC FM210900 VRB03KT 5SM BR BKN015
KBUR 
9nm N 
200520Z 2006/2106 VRB03KT P6SM SKC FM202000 17010KT P6SM SKC FM210500 VRB03KT P6SM SKC
KVNY 
12nm NW 
200520Z 2006/2106 VRB03KT P6SM SKC FM201300 36008KT P6SM SKC FM202000 15006KT P6SM SKC FM210400 VRB03KT P6SM SKC
KLGB 
17nm SE 
200520Z 2006/2106 VRB03KT P6SM SKC FM201100 VRB03KT 6SM BR BKN012 FM201600 VRB03KT P6SM SKC FM202000 21008KT P6SM SKC FM210000 29010KT P6SM SKC FM210400 VRB03KT P6SM SKC
NOTAMs
Click for the latest NOTAMs
NOTAMs are issued by the DoD/FAA and will open in a separate window not controlled by AirNav.

 

 
 

Would you like to see your business listed on this page?

 If your business provides an interesting product or service to pilots, flight crews, aircraft, or users of the Wilshire Area Heliport, you should consider listing it here.  To start the listing process, click on the button below
 
Add a business
 

Other Pages about Wilshire Area Heliport

Update a link
 
Copyright © AirNav, LLC. All rights reserved. Privacy Policy  Contact